Time;durP1;ratioP1;P1;durP2;ratioP2;P2;SDS_P1;SDS_P2;PMS_P1;PMS_P2;Temp;Humidity;BMP_temperature;BMP_pressure;BME280_temperature;BME280_humidity;BME280_pressure;Samples;Min_cycle;Max_cycle;Signal;HPM_P1;HPM_P2
2023/08/13 00:00:06;;;;;;;3.30;2.70;;;;;;;15.90;100.00;100992.66;4990002;28;20046;-87
2023/08/13 00:02:33;;;;;;;3.33;2.78;;;;;;;15.95;100.00;100988.97;5007448;28;20490;-89
2023/08/13 00:05:01;;;;;;;4.28;3.38;;;;;;;16.00;100.00;100991.50;5013194;28;20731;-88
2023/08/13 00:07:29;;;;;;;4.53;3.33;;;;;;;16.03;100.00;100994.06;5010843;28;20046;-93
2023/08/13 00:09:56;;;;;;;6.15;3.85;;;;;;;16.09;100.00;100990.38;5005993;28;20553;-88
2023/08/13 00:12:23;;;;;;;4.78;4.38;;;;;;;16.15;100.00;100993.75;4982540;28;20061;-88
2023/08/13 00:14:49;;;;;;;4.10;3.70;;;;;;;16.24;100.00;100991.75;5010864;28;20113;-85
2023/08/13 00:17:16;;;;;;;5.65;3.88;;;;;;;16.33;100.00;100983.59;5008820;28;20058;-87
2023/08/13 00:19:43;;;;;;;4.10;3.80;;;;;;;16.39;100.00;100983.41;5007262;28;20064;-87
2023/08/13 00:22:10;;;;;;;4.03;3.70;;;;;;;16.40;100.00;100989.56;4990319;28;20393;-86
2023/08/13 00:24:37;;;;;;;3.00;2.75;;;;;;;16.37;100.00;100982.59;5017606;28;20045;-87
2023/08/13 00:27:04;;;;;;;5.55;4.35;;;;;;;16.34;100.00;100982.69;5010217;28;20047;-85
2023/08/13 00:29:31;;;;;;;4.57;4.18;;;;;;;16.31;100.00;100995.94;4994608;28;20053;-90
2023/08/13 00:31:58;;;;;;;4.43;3.70;;;;;;;16.20;100.00;100990.97;5007814;28;20064;-87
2023/08/13 00:34:25;;;;;;;8.82;4.53;;;;;;;16.10;100.00;100989.47;5011237;28;20038;-87
2023/08/13 00:36:51;;;;;;;6.93;4.38;;;;;;;16.05;100.00;100994.91;5010493;28;20053;-86
2023/08/13 00:39:18;;;;;;;3.70;3.30;;;;;;;16.03;100.00;100996.69;5031418;28;20045;-88
2023/08/13 00:41:45;;;;;;;4.75;4.00;;;;;;;16.03;100.00;101005.50;5001153;28;20054;-90
2023/08/13 00:44:11;;;;;;;5.97;4.88;;;;;;;16.06;100.00;100995.75;5009230;28;20565;-89
2023/08/13 00:46:38;;;;;;;5.03;4.63;;;;;;;16.10;100.00;100990.38;5009946;28;20046;-87
2023/08/13 00:49:05;;;;;;;5.18;4.57;;;;;;;16.10;100.00;100998.28;5005575;28;20042;-84
2023/08/13 00:51:33;;;;;;;8.05;4.97;;;;;;;16.09;100.00;101000.94;5007490;28;20560;-90
2023/08/13 00:54:00;;;;;;;9.15;5.72;;;;;;;16.06;100.00;101006.31;4991607;28;20070;-86
2023/08/13 00:56:27;;;;;;;9.02;6.10;;;;;;;16.07;100.00;101008.91;5005072;28;20042;-86
2023/08/13 00:58:55;;;;;;;5.97;5.15;;;;;;;16.06;100.00;101016.88;5004775;28;20049;-86
2023/08/13 01:01:22;;;;;;;8.57;6.57;;;;;;;16.04;100.00;101016.94;5020463;28;20050;-87
2023/08/13 01:03:50;;;;;;;6.40;5.80;;;;;;;16.02;100.00;101011.69;4990766;28;20519;-86
2023/08/13 01:06:47;;;;;;;6.95;6.28;;;;;;;15.97;100.00;101013.59;4996595;28;20045;-86
2023/08/13 01:09:37;;;;;;;7.00;5.38;;;;;;;15.93;100.00;101019.84;4985693;28;20553;-88
2023/08/13 01:12:18;;;;;;;6.28;5.15;;;;;;;15.88;100.00;101025.25;5012791;28;20671;-86
2023/08/13 01:15:07;;;;;;;7.60;6.40;;;;;;;15.85;100.00;101019.16;4972424;28;20053;-88
2023/08/13 01:17:36;;;;;;;7.60;6.30;;;;;;;15.81;100.00;101023.69;5001587;28;20049;-89
2023/08/13 01:20:14;;;;;;;6.63;6.07;;;;;;;15.79;100.00;101020.16;4995247;28;20049;-86
2023/08/13 01:22:47;;;;;;;8.20;6.45;;;;;;;15.74;100.00;101022.03;5022631;28;20529;-89
2023/08/13 01:25:15;;;;;;;4.28;3.97;;;;;;;15.70;100.00;101020.38;4998316;28;20123;-85
2023/08/13 01:27:53;;;;;;;6.97;6.38;;;;;;;15.68;100.00;101012.50;5007502;28;20120;-87
2023/08/13 01:30:46;;;;;;;7.55;5.95;;;;;;;15.67;100.00;101018.69;4992989;28;20916;-88
2023/08/13 01:33:26;;;;;;;8.75;6.68;;;;;;;15.71;100.00;101017.69;5005139;28;20447;-88
2023/08/13 01:36:00;;;;;;;6.45;5.85;;;;;;;15.67;100.00;101016.06;5004770;28;20068;-87
2023/08/13 01:38:35;;;;;;;6.85;5.57;;;;;;;15.65;100.00;101017.84;4999470;28;20046;-85
2023/08/13 01:41:03;;;;;;;6.78;5.18;;;;;;;15.62;100.00;101012.66;5009906;28;21603;-87
2023/08/13 01:43:30;;;;;;;5.72;4.82;;;;;;;15.61;100.00;101023.25;5010414;28;20517;-87
2023/08/13 01:46:00;;;;;;;12.35;6.25;;;;;;;15.55;100.00;101022.50;4986028;28;20073;-92
2023/08/13 01:48:27;;;;;;;9.75;6.20;;;;;;;15.54;100.00;101023.41;5006431;28;20056;-89
2023/08/13 01:50:54;;;;;;;7.68;5.85;;;;;;;15.51;100.00;101015.56;4990332;28;20553;-86
2023/08/13 01:53:21;;;;;;;5.38;4.63;;;;;;;15.49;100.00;101020.00;5017338;28;20045;-89
2023/08/13 01:55:49;;;;;;;5.22;4.72;;;;;;;15.45;100.00;101020.97;5003296;28;20056;-86
2023/08/13 01:58:16;;;;;;;5.25;4.78;;;;;;;15.43;100.00;101017.50;5010791;28;20574;-86
2023/08/13 02:00:42;;;;;;;8.18;5.80;;;;;;;15.41;100.00;101023.69;4987496;28;20056;-88
2023/08/13 02:03:10;;;;;;;9.30;5.78;;;;;;;15.39;100.00;101021.09;4995675;28;20050;-86
2023/08/13 02:05:37;;;;;;;5.00;4.60;;;;;;;15.34;100.00;101022.97;4994476;28;20141;-87
2023/08/13 02:08:04;;;;;;;5.57;5.00;;;;;;;15.34;100.00;101028.25;5008724;28;20065;-87
2023/08/13 02:10:33;;;;;;;6.82;4.78;;;;;;;15.31;100.00;101023.91;4996275;28;20041;-84
2023/08/13 02:13:00;;;;;;;6.70;4.47;;;;;;;15.27;100.00;101024.03;4993574;28;20125;-88
2023/08/13 02:15:27;;;;;;;5.03;4.20;;;;;;;15.26;100.00;101027.56;5005331;28;20069;-87
2023/08/13 02:17:53;;;;;;;5.22;4.22;;;;;;;15.23;100.00;101025.88;5008397;28;20054;-85
2023/08/13 02:20:20;;;;;;;5.65;4.13;;;;;;;15.24;100.00;101032.00;4997195;28;20137;-85
2023/08/13 02:22:47;;;;;;;4.72;3.80;;;;;;;15.22;100.00;101030.25;5003399;28;20414;-86
2023/08/13 02:25:13;;;;;;;3.88;3.55;;;;;;;15.18;100.00;101019.84;5003325;28;20041;-88
2023/08/13 02:27:40;;;;;;;7.43;4.47;;;;;;;15.20;100.00;101025.91;5005263;28;20053;-86
2023/08/13 02:30:09;;;;;;;4.60;3.42;;;;;;;15.19;100.00;101030.34;5002389;28;20087;-86
2023/08/13 02:32:37;;;;;;;4.60;3.70;;;;;;;15.20;100.00;101034.72;4985445;28;20073;-85
2023/08/13 02:35:04;;;;;;;9.70;4.18;;;;;;;15.18;100.00;101031.22;5003708;28;20054;-87
2023/08/13 02:37:31;;;;;;;4.10;3.65;;;;;;;15.19;100.00;101029.47;5007847;28;20568;-86
2023/08/13 02:39:58;;;;;;;8.70;3.53;;;;;;;15.20;100.00;101032.09;5010715;28;20045;-85
2023/08/13 02:42:24;;;;;;;4.70;3.58;;;;;;;15.19;100.00;101032.97;4999331;28;20133;-87
2023/08/13 02:44:51;;;;;;;5.95;4.20;;;;;;;15.22;100.00;101032.91;5004070;28;20560;-87
2023/08/13 02:47:18;;;;;;;7.85;4.05;;;;;;;15.27;100.00;101035.44;5013996;28;20486;-86
2023/08/13 02:49:44;;;;;;;7.30;4.10;;;;;;;15.31;100.00;101034.47;5005842;28;20819;-88
2023/08/13 02:52:11;;;;;;;6.72;4.20;;;;;;;15.35;100.00;101040.56;5005555;28;20041;-85
2023/08/13 02:54:38;;;;;;;7.35;4.22;;;;;;;15.42;100.00;101038.63;5015070;28;20056;-88
2023/08/13 02:57:04;;;;;;;5.60;4.63;;;;;;;15.49;100.00;101034.97;4986753;28;20050;-86
2023/08/13 02:59:32;;;;;;;7.13;4.80;;;;;;;15.56;100.00;101033.91;5005702;28;20038;-86
2023/08/13 03:01:59;;;;;;;6.15;3.95;;;;;;;15.63;100.00;101031.97;5003231;28;20046;-88
2023/08/13 03:04:25;;;;;;;6.47;4.18;;;;;;;15.70;100.00;101030.94;5008285;28;20044;-89
2023/08/13 03:06:52;;;;;;;10.43;4.32;;;;;;;15.74;100.00;101026.47;5006873;28;20038;-85
2023/08/13 03:09:21;;;;;;;4.85;4.32;;;;;;;15.75;100.00;101020.25;4993338;28;20393;-87
2023/08/13 03:11:49;;;;;;;3.83;3.50;;;;;;;15.74;100.00;101023.81;4996357;28;20042;-87
2023/08/13 03:14:16;;;;;;;4.35;3.05;;;;;;;15.76;100.00;101025.53;5005992;28;20049;-88
2023/08/13 03:16:43;;;;;;;6.68;3.15;;;;;;;15.82;100.00;101033.31;4998265;28;20493;-93
2023/08/13 03:19:13;;;;;;;3.72;3.45;;;;;;;15.87;100.00;101025.28;5006474;28;20041;-85
2023/08/13 03:21:40;;;;;;;3.35;3.05;;;;;;;15.89;100.00;101026.09;4987851;28;20041;-90
2023/08/13 03:24:07;;;;;;;4.35;3.45;;;;;;;15.92;100.00;101026.03;5009133;28;20384;-86
2023/08/13 03:26:33;;;;;;;8.23;4.20;;;;;;;15.97;100.00;101028.53;5013218;28;20050;-91
2023/08/13 03:29:00;;;;;;;4.78;3.55;;;;;;;15.98;100.00;101025.88;5008739;28;20052;-86
2023/08/13 03:31:27;;;;;;;4.38;2.55;;;;;;;15.97;100.00;101023.25;5025707;28;20049;-86
2023/08/13 03:33:54;;;;;;;8.57;3.85;;;;;;;15.92;100.00;101028.69;5029881;22;20063;-86
2023/08/13 03:36:21;;;;;;;6.13;3.17;;;;;;;15.88;100.00;101027.88;5029758;28;20140;-85
2023/08/13 03:38:48;;;;;;;5.05;3.75;;;;;;;15.85;100.00;101027.97;5025241;28;20057;-86
2023/08/13 03:41:15;;;;;;;3.15;2.95;;;;;;;15.86;100.00;101029.69;5019506;28;20426;-86
2023/08/13 03:43:41;;;;;;;2.88;2.55;;;;;;;15.83;100.00;101027.13;5008613;28;20109;-88
2023/08/13 03:46:08;;;;;;;7.35;3.72;;;;;;;15.83;100.00;101032.41;5030407;28;20053;-88
2023/08/13 03:48:35;;;;;;;8.02;2.90;;;;;;;15.86;100.00;101031.47;5027012;28;20444;-89
2023/08/13 03:51:04;;;;;;;5.78;3.75;;;;;;;15.88;100.00;101030.50;5006798;28;20057;-87
2023/08/13 03:53:31;;;;;;;3.47;3.17;;;;;;;15.92;100.00;101041.88;5010432;28;20072;-87
2023/08/13 03:55:58;;;;;;;4.82;2.80;;;;;;;15.92;100.00;101038.34;5011272;28;20135;-86
2023/08/13 03:58:25;;;;;;;5.45;3.13;;;;;;;15.87;100.00;101034.06;5019732;28;20454;-85
2023/08/13 04:00:52;;;;;;;9.18;2.80;;;;;;;15.81;100.00;101028.94;5008146;28;20049;-88
2023/08/13 04:03:19;;;;;;;10.15;4.80;;;;;;;15.75;100.00;101033.47;5028597;28;20038;-89
2023/08/13 04:05:47;;;;;;;7.55;3.15;;;;;;;15.67;100.00;101041.56;5027706;28;20038;-89
2023/08/13 04:08:13;;;;;;;4.47;3.10;;;;;;;15.60;100.00;101047.91;5006985;28;20042;-87
2023/08/13 04:10:40;;;;;;;4.18;3.72;;;;;;;15.58;100.00;101042.66;5006411;28;20073;-87
2023/08/13 04:13:07;;;;;;;3.92;2.90;;;;;;;15.57;100.00;101045.34;5007318;28;20042;-86
2023/08/13 04:15:33;;;;;;;10.35;4.18;;;;;;;15.62;100.00;101046.97;5019913;28;20095;-91
2023/08/13 04:18:00;;;;;;;3.53;3.00;;;;;;;15.63;100.00;101048.69;5003792;28;20393;-88
2023/08/13 04:20:27;;;;;;;5.38;3.90;;;;;;;15.63;100.00;101045.19;5033316;28;20042;-87
2023/08/13 04:22:54;;;;;;;5.55;3.70;;;;;;;15.61;100.00;101047.84;5022921;28;20061;-90
2023/08/13 04:25:20;;;;;;;6.65;3.97;;;;;;;15.62;100.00;101049.59;5000232;28;20041;-86
2023/08/13 04:27:50;;;;;;;4.50;3.42;;;;;;;15.63;100.00;101047.81;5023983;28;20452;-86
2023/08/13 04:30:16;;;;;;;4.88;4.47;;;;;;;15.62;100.00;101051.34;5015380;28;20041;-85
2023/08/13 04:32:56;;;;;;;4.82;3.67;;;;;;;15.60;100.00;101043.47;5021009;28;20482;-87
2023/08/13 04:35:24;;;;;;;6.85;3.95;;;;;;;15.62;100.00;101038.16;5022010;28;20172;-89
2023/08/13 04:37:52;;;;;;;6.15;4.25;;;;;;;15.65;100.00;101038.97;5009480;28;20057;-88
2023/08/13 04:40:19;;;;;;;7.88;4.43;;;;;;;15.68;100.00;101045.94;5011816;28;20042;-87
2023/08/13 04:42:46;;;;;;;12.15;4.53;;;;;;;15.70;100.00;101045.00;5010877;28;20057;-85
2023/08/13 04:45:15;;;;;;;7.68;4.68;;;;;;;15.71;100.00;101041.47;5013589;28;20046;-88
2023/08/13 04:47:42;;;;;;;7.80;4.82;;;;;;;15.77;100.00;101047.50;4996874;28;20503;-86
2023/08/13 04:50:10;;;;;;;7.50;4.72;;;;;;;15.77;100.00;101051.00;5029142;28;20041;-87
2023/08/13 04:52:37;;;;;;;9.77;5.43;;;;;;;15.79;100.00;101043.91;5014111;28;20050;-87
2023/08/13 04:55:05;;;;;;;7.55;4.60;;;;;;;15.81;100.00;101043.91;5014619;28;20053;-86
2023/08/13 04:57:32;;;;;;;6.28;4.20;;;;;;;15.80;100.00;101045.66;5014993;28;20049;-85
2023/08/13 05:00:01;;;;;;;6.35;4.25;;;;;;;15.78;100.00;101047.44;5049136;28;20053;-85
2023/08/13 05:02:28;;;;;;;4.65;3.97;;;;;;;15.77;100.00;101056.28;5031573;28;20037;-85
2023/08/13 05:04:54;;;;;;;5.35;4.95;;;;;;;15.74;100.00;101051.06;5012887;28;20060;-86
2023/08/13 05:07:23;;;;;;;5.80;4.07;;;;;;;15.71;100.00;101049.38;5011753;28;20045;-85
2023/08/13 05:09:50;;;;;;;7.10;4.97;;;;;;;15.70;100.00;101050.28;5011186;28;20133;-87
2023/08/13 05:12:17;;;;;;;5.78;4.07;;;;;;;15.76;100.00;101054.56;4995880;28;20046;-87
2023/08/13 05:14:44;;;;;;;4.22;3.80;;;;;;;15.79;100.00;101050.97;5013565;28;20045;-85
2023/08/13 05:17:21;;;;;;;8.23;4.22;;;;;;;15.82;100.00;101048.28;5011603;28;20104;-89
2023/08/13 05:19:48;;;;;;;6.90;4.70;;;;;;;15.88;100.00;101051.63;5029087;28;20091;-91
2023/08/13 05:22:15;;;;;;;6.15;3.97;;;;;;;15.93;100.00;101048.00;5028565;28;20045;-90
2023/08/13 05:24:42;;;;;;;5.40;4.15;;;;;;;15.99;100.00;101054.00;5042933;28;20057;-92
2023/08/13 05:27:17;;;;;;;4.07;3.67;;;;;;;16.08;100.00;101052.06;5030334;28;20037;-88
2023/08/13 05:29:44;;;;;;;6.05;4.07;;;;;;;16.16;100.00;101055.34;5014976;28;20062;-86
2023/08/13 05:32:10;;;;;;;4.85;4.40;;;;;;;16.23;100.00;101050.78;5028888;28;20045;-87
2023/08/13 05:34:37;;;;;;;4.45;4.00;;;;;;;16.33;100.00;101057.56;5032999;28;20056;-86
2023/08/13 05:37:05;;;;;;;5.10;4.15;;;;;;;16.43;100.00;101063.47;5017969;28;20496;-86
2023/08/13 05:39:32;;;;;;;5.05;4.20;;;;;;;16.54;100.00;101058.75;5030776;28;20046;-88
2023/08/13 05:41:59;;;;;;;3.90;3.50;;;;;;;16.62;100.00;101051.50;5017667;28;20325;-85
2023/08/13 05:44:25;;;;;;;6.20;3.28;;;;;;;16.72;100.00;101052.09;5017394;28;20049;-85
2023/08/13 05:46:52;;;;;;;7.72;3.90;;;;;;;16.83;100.00;101052.66;5015721;28;20069;-87
2023/08/13 05:49:19;;;;;;;5.03;3.88;;;;;;;16.95;100.00;101055.91;5009765;28;20065;-86
2023/08/13 05:51:48;;;;;;;4.13;3.78;;;;;;;17.07;100.00;101057.31;5020254;28;20065;-86
2023/08/13 05:54:15;;;;;;;7.20;4.05;;;;;;;17.17;100.00;101051.69;5019681;28;20519;-87
2023/08/13 05:56:42;;;;;;;3.90;3.50;;;;;;;17.27;100.00;101049.63;5024860;28;20053;-87
2023/08/13 05:59:09;;;;;;;3.83;3.53;;;;;;;17.35;100.00;101052.91;5031250;28;20477;-88
2023/08/13 06:01:35;;;;;;;5.88;4.03;;;;;;;17.43;100.00;101057.09;5008924;28;20103;-88
2023/08/13 06:04:02;;;;;;;3.97;3.58;;;;;;;17.47;100.00;101054.31;5016711;28;20037;-90
2023/08/13 06:06:30;;;;;;;4.43;3.33;;;;;;;17.51;100.00;101053.28;5008063;28;20042;-89
2023/08/13 06:08:56;;;;;;;10.10;3.60;;;;;;;17.59;100.00;101058.34;5024140;28;20045;-86
2023/08/13 06:11:26;;;;;;;9.60;3.70;;;;;;;17.66;100.00;101054.59;5029633;28;20045;-87
2023/08/13 06:13:54;;;;;;;4.45;3.25;;;;;;;17.68;100.00;101052.75;5010599;28;20049;-88
2023/08/13 06:16:21;;;;;;;6.47;3.88;;;;;;;17.73;100.00;101055.28;5046130;28;20054;-85
2023/08/13 06:18:48;;;;;;;6.47;3.63;;;;;;;17.78;100.00;101071.00;5028587;28;20144;-87
2023/08/13 06:21:14;;;;;;;3.47;2.60;;;;;;;17.80;100.00;101070.03;5029615;28;20049;-88
2023/08/13 06:23:41;;;;;;;4.28;2.80;;;;;;;17.88;100.00;101069.78;5006868;28;20107;-92
2023/08/13 06:26:08;;;;;;;3.28;2.78;;;;;;;17.93;100.00;101070.53;5013479;28;20096;-88
2023/08/13 06:28:44;;;;;;;5.35;3.33;;;;;;;17.98;100.00;101075.69;5031615;28;20465;-89
2023/08/13 06:31:12;;;;;;;5.35;3.03;;;;;;;18.04;100.00;101085.19;5028167;28;20045;-86
2023/08/13 06:33:42;;;;;;;3.78;3.00;;;;;;;18.06;100.00;101081.59;5019435;28;20107;-86
2023/08/13 06:36:09;;;;;;;5.13;2.58;;;;;;;18.12;100.00;101077.84;5004783;28;20107;-86
2023/08/13 06:38:37;;;;;;;4.05;3.10;;;;;;;18.14;100.00;101083.97;5004163;28;20052;-87
2023/08/13 06:41:05;;;;;;;3.65;2.53;;;;;;;18.18;100.00;101090.91;5015613;28;20584;-87
2023/08/13 06:43:34;;;;;;;3.30;2.42;;;;;;;18.22;100.00;101089.88;5028477;28;20049;-86
2023/08/13 06:46:03;;;;;;;3.35;2.50;;;;;;;18.32;100.00;101083.34;5013493;28;20581;-85
2023/08/13 06:48:34;;;;;;;4.13;3.08;;;;;;;18.43;100.00;101088.25;5028633;28;20112;-86
2023/08/13 06:51:01;;;;;;;3.95;2.08;;;;;;;18.56;100.00;101091.34;5026590;28;20144;-85
2023/08/13 06:53:30;;;;;;;4.65;2.92;;;;;;;18.68;100.00;101092.69;5011474;28;20039;-85
2023/08/13 06:56:01;;;;;;;3.65;2.25;;;;;;;18.77;100.00;101096.81;5025408;28;20190;-85
2023/08/13 06:58:31;;;;;;;3.15;1.88;;;;;;;18.87;100.00;101095.56;5024674;28;20045;-88
2023/08/13 07:00:57;;;;;;;3.60;2.00;;;;;;;19.01;100.00;101085.34;5047668;28;20053;-85
2023/08/13 07:03:24;;;;;;;5.80;2.15;;;;;;;19.23;100.00;101088.97;5029963;28;20042;-83
2023/08/13 07:05:52;;;;;;;7.57;2.70;;;;;;;19.44;100.00;101092.59;5028930;28;20045;-85
2023/08/13 07:08:21;;;;;;;4.20;2.17;;;;;;;19.70;99.04;101088.91;5012254;28;20044;-85
2023/08/13 07:10:49;;;;;;;3.70;2.33;;;;;;;19.96;96.27;101095.84;5010167;28;20098;-87
2023/08/13 07:13:16;;;;;;;2.97;2.05;;;;;;;20.10;95.14;101097.94;5026132;28;20045;-87
2023/08/13 07:15:42;;;;;;;5.88;2.08;;;;;;;20.34;91.10;101092.50;5028831;28;20033;-85
2023/08/13 07:18:09;;;;;;;5.38;2.42;;;;;;;20.57;91.60;101093.28;5046093;28;20045;-87
2023/08/13 07:20:35;;;;;;;4.43;2.17;;;;;;;20.91;90.57;101089.16;5025553;28;20072;-82
2023/08/13 07:23:04;;;;;;;3.10;1.88;;;;;;;21.26;87.38;101084.88;5041580;28;20576;-90
2023/08/13 07:25:30;;;;;;;3.72;2.05;;;;;;;21.46;87.78;101094.56;5057591;28;20055;-83
2023/08/13 07:27:57;;;;;;;2.88;2.20;;;;;;;21.69;87.26;101087.28;5023263;28;20125;-82
2023/08/13 07:30:24;;;;;;;1.77;1.67;;;;;;;22.03;85.26;101098.09;5045945;28;20120;-84
2023/08/13 07:32:51;;;;;;;4.82;1.60;;;;;;;22.45;80.51;101099.56;5031018;28;20052;-82
2023/08/13 07:35:17;;;;;;;3.72;1.70;;;;;;;22.53;79.53;101096.47;5009642;28;20061;-84
2023/08/13 07:37:44;;;;;;;7.82;1.63;;;;;;;22.86;80.65;101095.66;5022123;28;20104;-92
2023/08/13 07:40:16;;;;;;;3.55;2.08;;;;;;;23.01;77.54;101102.84;5002648;28;20506;-85
2023/08/13 07:42:44;;;;;;;4.50;1.75;;;;;;;23.00;77.43;101098.44;5043401;28;20382;-84
2023/08/13 07:45:11;;;;;;;7.38;1.92;;;;;;;22.55;74.79;101089.28;5017732;28;20452;-83
2023/08/13 07:47:38;;;;;;;5.55;1.95;;;;;;;22.51;74.81;101093.88;5012725;28;20456;-84
2023/08/13 07:50:09;;;;;;;1.35;0.88;;;;;;;22.45;73.57;101105.75;5026519;28;20053;-88
2023/08/13 07:52:36;;;;;;;5.38;1.73;;;;;;;22.52;74.16;101100.97;5011234;28;20586;-82
2023/08/13 07:55:05;;;;;;;6.20;1.60;;;;;;;22.99;74.10;101106.53;4993926;28;20049;-82
2023/08/13 07:57:32;;;;;;;2.90;1.65;;;;;;;23.53;71.34;101098.25;5028316;28;20052;-84
2023/08/13 08:00:01;;;;;;;5.20;1.63;;;;;;;24.08;68.25;101096.94;5027262;28;20047;-87
2023/08/13 08:02:27;;;;;;;2.03;1.52;;;;;;;24.58;66.30;101095.69;5043772;28;20041;-83
2023/08/13 08:04:54;;;;;;;4.63;1.40;;;;;;;24.93;63.59;101099.88;5029974;28;20661;-85
2023/08/13 08:07:22;;;;;;;2.80;1.40;;;;;;;25.37;63.55;101098.91;5043962;28;20038;-85
2023/08/13 08:09:48;;;;;;;3.22;1.50;;;;;;;25.20;63.56;101096.38;5032073;28;20042;-86
2023/08/13 08:12:15;;;;;;;4.65;1.88;;;;;;;25.37;62.90;101093.53;5011335;28;20169;-85
2023/08/13 08:14:42;;;;;;;6.20;1.90;;;;;;;25.80;60.42;101094.34;5020032;28;20688;-84
2023/08/13 08:17:10;;;;;;;3.20;1.23;;;;;;;26.35;58.75;101093.34;5030123;28;20132;-85
2023/08/13 08:19:37;;;;;;;2.35;0.90;;;;;;;27.11;55.46;101087.22;5011728;28;20060;-84
2023/08/13 08:22:04;;;;;;;4.10;1.40;;;;;;;27.39;52.87;101086.97;5028734;28;20045;-83
2023/08/13 08:24:33;;;;;;;2.20;1.13;;;;;;;27.75;52.39;101078.97;5011917;28;20045;-84
2023/08/13 08:27:00;;;;;;;4.75;1.13;;;;;;;27.97;50.08;101099.72;5013170;28;20128;-84
2023/08/13 08:29:27;;;;;;;3.08;0.80;;;;;;;28.22;51.08;101081.75;5043010;28;20532;-83
2023/08/13 08:31:53;;;;;;;5.25;1.55;;;;;;;27.47;49.26;101085.53;5027163;28;20045;-86
2023/08/13 08:34:20;;;;;;;3.05;1.15;;;;;;;26.78;50.99;101089.53;5042863;28;20049;-84
2023/08/13 08:36:47;;;;;;;1.17;0.98;;;;;;;26.06;54.11;101085.47;5014271;28;20053;-92
2023/08/13 08:39:16;;;;;;;3.97;1.27;;;;;;;25.54;55.98;101087.06;5043666;28;20056;-83
2023/08/13 08:41:48;;;;;;;1.95;0.95;;;;;;;26.01;53.12;101076.84;5025674;28;20124;-83
2023/08/13 08:44:24;;;;;;;3.33;1.02;;;;;;;26.71;51.22;101090.88;5027331;28;20076;-84
2023/08/13 08:46:53;;;;;;;4.65;1.27;;;;;;;27.65;49.25;101086.00;5027699;28;20126;-83
2023/08/13 08:49:24;;;;;;;2.70;1.13;;;;;;;28.41;46.75;101096.47;5043717;28;20049;-83
2023/08/13 08:51:52;;;;;;;2.65;1.08;;;;;;;28.59;45.16;101086.09;5043807;28;20099;-83
2023/08/13 08:54:20;;;;;;;1.92;0.90;;;;;;;27.60;46.63;101091.75;5032092;28;20041;-82
2023/08/13 08:56:47;;;;;;;1.75;0.93;;;;;;;26.95;49.33;101082.06;5010788;28;20147;-83
2023/08/13 08:59:14;;;;;;;0.93;0.60;;;;;;;27.32;47.90;101082.97;5030638;28;20044;-84
2023/08/13 09:01:41;;;;;;;0.77;0.77;;;;;;;28.00;46.65;101074.41;5027769;28;20041;-83
2023/08/13 09:04:07;;;;;;;2.97;0.70;;;;;;;28.12;46.11;101080.72;5026488;28;20691;-84
2023/08/13 09:07:01;;;;;;;7.07;1.20;;;;;;;28.45;44.78;101084.50;5013040;28;20038;-85
2023/08/13 09:09:29;;;;;;;3.40;1.02;;;;;;;28.64;44.11;101081.19;5023571;28;20046;-85
2023/08/13 09:11:57;;;;;;;4.32;1.33;;;;;;;28.85;44.69;101082.22;5009469;28;20060;-83
2023/08/13 09:14:25;;;;;;;3.53;1.00;;;;;;;29.67;43.14;101083.72;5022679;28;20933;-83
2023/08/13 09:16:55;;;;;;;3.10;0.68;;;;;;;29.37;42.60;101082.56;5028457;28;20348;-85
2023/08/13 09:19:29;;;;;;;2.40;0.75;;;;;;;30.31;41.92;101075.69;5013064;28;20140;-89
2023/08/13 09:22:03;;;;;;;1.90;0.70;;;;;;;30.67;38.78;101070.81;5040724;28;20060;-89
2023/08/13 09:24:38;;;;;;;1.10;0.90;;;;;;;31.05;38.46;101073.84;5044533;28;20064;-83
2023/08/13 09:27:07;;;;;;;2.95;0.90;;;;;;;31.33;38.48;101072.22;5032076;28;20037;-85
2023/08/13 09:29:36;;;;;;;3.20;1.10;;;;;;;31.06;38.91;101075.56;5046433;28;20144;-85
2023/08/13 09:32:04;;;;;;;2.60;0.88;;;;;;;30.99;38.37;101073.38;5029040;28;20124;-84
2023/08/13 09:34:33;;;;;;;0.82;0.63;;;;;;;30.53;39.70;101069.31;5029486;28;20095;-84
2023/08/13 09:36:59;;;;;;;1.45;0.80;;;;;;;30.62;39.09;101067.66;5035830;28;20049;-83
2023/08/13 09:39:34;;;;;;;1.05;0.85;;;;;;;30.29;39.99;101066.88;5029282;28;20128;-84
2023/08/13 09:42:06;;;;;;;2.22;0.65;;;;;;;30.52;39.16;101067.63;5028216;28;20045;-85
2023/08/13 09:44:32;;;;;;;3.33;0.70;;;;;;;30.51;39.69;101065.91;5040495;28;20054;-85
2023/08/13 09:47:02;;;;;;;1.83;0.85;;;;;;;30.83;39.19;101064.91;5026848;28;20700;-86
2023/08/13 09:49:33;;;;;;;2.15;0.80;;;;;;;31.75;37.48;101069.28;5007813;28;20057;-83
2023/08/13 09:52:04;;;;;;;1.80;1.40;;;;;;;32.53;35.77;101065.66;5025413;28;20052;-87
2023/08/13 09:54:49;;;;;;;2.08;0.80;;;;;;;31.90;36.06;101071.56;5024678;28;20095;-83
2023/08/13 09:57:17;;;;;;;1.27;0.85;;;;;;;31.56;36.66;101064.69;5034755;28;20144;-86
2023/08/13 09:59:46;;;;;;;0.60;0.60;;;;;;;31.42;37.24;101055.16;5005542;28;20056;-86
2023/08/13 10:02:15;;;;;;;1.80;1.00;;;;;;;30.76;37.25;101052.94;5019946;28;20045;-87
2023/08/13 10:04:45;;;;;;;1.95;0.95;;;;;;;30.25;39.16;101055.50;5024738;28;20049;-85
2023/08/13 10:07:15;;;;;;;1.83;1.20;;;;;;;30.33;39.52;101050.28;5010848;28;20041;-83
2023/08/13 10:09:49;;;;;;;1.63;0.80;;;;;;;31.24;36.87;101054.09;5027485;28;20128;-83
2023/08/13 10:12:33;;;;;;;2.33;0.80;;;;;;;32.07;35.93;101054.59;5020854;28;20059;-84
2023/08/13 10:15:05;;;;;;;1.23;1.02;;;;;;;32.73;34.96;101063.75;5023012;28;20508;-84
2023/08/13 10:17:35;;;;;;;1.77;0.88;;;;;;;32.85;34.62;101056.25;5021227;28;20064;-87
2023/08/13 10:20:03;;;;;;;2.08;1.00;;;;;;;31.80;35.49;101061.59;5025282;28;20072;-86
2023/08/13 10:22:39;;;;;;;1.35;0.80;;;;;;;31.86;34.87;101057.47;5006817;28;20053;-86
2023/08/13 10:25:07;;;;;;;1.73;0.93;;;;;;;32.78;34.95;101053.31;5023325;28;20077;-84
2023/08/13 10:27:44;;;;;;;1.02;0.68;;;;;;;33.92;32.65;101056.59;5021245;28;20072;-85
2023/08/13 10:30:14;;;;;;;4.03;1.10;;;;;;;34.01;33.04;101049.34;5010006;28;20512;-83
2023/08/13 10:33:01;;;;;;;2.10;0.65;;;;;;;33.50;32.73;101057.19;5026104;28;20041;-83
2023/08/13 10:35:39;;;;;;;4.57;0.95;;;;;;;33.21;33.78;101053.66;5025061;28;20080;-87
2023/08/13 10:38:10;;;;;;;4.05;0.77;;;;;;;33.14;33.33;101050.69;5021643;28;20136;-83
2023/08/13 10:40:37;;;;;;;2.27;1.00;;;;;;;32.95;32.86;101051.66;5009214;28;20049;-83
2023/08/13 10:43:06;;;;;;;1.67;0.82;;;;;;;31.59;36.37;101045.47;5025661;28;20347;-86
2023/08/13 10:45:35;;;;;;;2.40;0.82;;;;;;;30.91;37.13;101051.59;5025350;28;20516;-85
2023/08/13 10:48:08;;;;;;;3.28;0.93;;;;;;;30.51;38.04;101045.16;5026754;28;20114;-88
2023/08/13 10:50:47;;;;;;;4.13;1.08;;;;;;;30.13;37.65;101046.59;5029514;28;20509;-83
2023/08/13 10:53:21;;;;;;;1.58;0.93;;;;;;;29.40;39.88;101043.72;5046512;28;20033;-90
2023/08/13 10:55:59;;;;;;;0.90;0.85;;;;;;;29.99;38.80;101034.28;5026963;28;20065;-81
2023/08/13 10:58:40;;;;;;;1.13;0.80;;;;;;;29.73;39.53;101036.47;5035325;28;20053;-87
2023/08/13 11:01:10;;;;;;;4.65;1.05;;;;;;;30.05;39.03;101032.91;5013181;28;20057;-85
2023/08/13 11:03:56;;;;;;;4.40;1.17;;;;;;;30.71;37.32;101028.19;5023929;28;20053;-83
2023/08/13 11:06:27;;;;;;;3.10;0.90;;;;;;;29.27;40.08;101026.81;5037719;28;20756;-83
2023/08/13 11:08:55;;;;;;;1.58;1.48;;;;;;;27.94;43.10;101032.72;5006919;28;20370;-87
2023/08/13 11:11:23;;;;;;;1.77;1.23;;;;;;;27.61;43.93;101034.28;5010686;28;20243;-87
2023/08/13 11:13:50;;;;;;;4.25;1.98;;;;;;;27.42;44.29;101026.75;5005958;28;20053;-85
2023/08/13 11:16:17;;;;;;;4.22;1.50;;;;;;;27.11;45.67;101028.97;5029404;28;20128;-85
2023/08/13 11:18:44;;;;;;;1.40;1.30;;;;;;;27.06;45.94;101036.50;5043613;28;20513;-85
2023/08/13 11:21:11;;;;;;;2.03;1.45;;;;;;;26.64;46.89;101034.06;5039370;28;20042;-83
2023/08/13 11:23:38;;;;;;;1.00;1.00;;;;;;;26.95;45.99;101026.53;5028541;28;20055;-84
2023/08/13 11:26:05;;;;;;;4.50;1.23;;;;;;;26.95;46.26;101021.16;5027374;28;20041;-83